aviador You're here:

CYKY Decoded Metar

KINDERSLEY in SK, CANADA
Report Time2018-01-17 06:00:00
UTC Time2018-01-17 06:51:51
Flight Rules vfr VFR
Wind230° at 15 kt
W.Decomp.*RWY 26: 10.8 kt HW 10.4 kt LCW
RWY 17: 10.4 kt HW 10.8 kt RCW
W.Rank230° ranks 28
Current wind is above 230° avg. (7.7)
Visibility9999 m
Phenomena:N/A
Clouds:N/A
Expected CloudBase > 1,200 ft AGL from Temp-Dew spread
CeilingNone
Temp-1°C (ISA -11)
Dew Point-4°C (80% RH)
AAT-8.9°C
QNH1009 hPa
Density Alt1,086 ft
Elevation2,277 ft
Report Wrong Elevation
Raw Report
CYKY 170600Z 23015KT 15SM SKC M01/M04 A2981 RMK SLP135=

Extra information for CYKY:More info

Metar Taf Metar & Taf Last 4 Metars F.Rules Stats Wind Profile Meteogram Temp Stats Airport Information Weather charts Add Link Nearby VenuesMetar ALERT Operation Metar Decoded Social comments